createdAt,value
2022-12-29T00:00:40.060Z,99.37
2022-12-29T00:03:42.439Z,95.38
2022-12-29T00:06:44.780Z,84.38
2022-12-29T00:09:47.311Z,83.67
2022-12-29T00:13:07.927Z,86.75
2022-12-29T00:16:10.457Z,84.18
2022-12-29T00:19:31.755Z,91.20
2022-12-29T00:22:52.643Z,109.80
2022-12-29T00:26:13.400Z,87.95
2022-12-29T00:29:42.884Z,85.20
2022-12-29T00:33:03.782Z,84.50
2022-12-29T00:36:08.222Z,83.13
2022-12-29T00:39:36.140Z,80.88
2022-12-29T00:42:56.788Z,74.27
2022-12-29T00:45:58.881Z,84.35
2022-12-29T00:49:20.007Z,71.68
2022-12-29T00:52:24.089Z,64.57
2022-12-29T00:55:26.325Z,63.55
2022-12-29T00:58:29.786Z,54.55
2022-12-29T01:01:32.099Z,49.83
2022-12-29T01:04:34.883Z,63.67
2022-12-29T01:07:37.152Z,71.35
2022-12-29T01:10:39.411Z,53.70
2022-12-29T01:13:43.651Z,50.73
2022-12-29T01:16:47.508Z,46.13
2022-12-29T01:19:50.246Z,44.22
2022-12-29T01:22:52.422Z,57.88
2022-12-29T01:25:56.023Z,53.40
2022-12-29T01:28:59.843Z,54.05
2022-12-29T01:32:01.999Z,49.55
2022-12-29T01:35:04.619Z,50.77
2022-12-29T01:38:06.960Z,61.58
2022-12-29T01:41:10.698Z,56.15
2022-12-29T01:44:31.632Z,42.93
2022-12-29T01:47:36.534Z,49.80
2022-12-29T01:50:41.303Z,59.38
2022-12-29T01:53:44.187Z,59.60
2022-12-29T01:56:47.056Z,47.65
2022-12-29T01:59:54.267Z,50.15
2022-12-29T02:02:56.428Z,60.75
2022-12-29T02:06:01.567Z,48.87
2022-12-29T02:09:03.856Z,47.20
2022-12-29T02:12:06.283Z,43.00
2022-12-29T02:15:10.326Z,41.40
2022-12-29T02:18:16.037Z,39.38
2022-12-29T02:21:39.412Z,46.65
2022-12-29T02:24:50.878Z,42.35
2022-12-29T02:28:11.814Z,41.83
2022-12-29T02:31:19.997Z,40.03
2022-12-29T02:34:32.353Z,45.95
2022-12-29T02:37:49.773Z,46.07
2022-12-29T02:40:59.190Z,41.22
2022-12-29T02:44:02.460Z,41.20
2022-12-29T02:47:30.815Z,47.90
2022-12-29T02:50:32.945Z,43.13
2022-12-29T02:53:55.665Z,45.05
2022-12-29T02:56:58.374Z,51.80
2022-12-29T03:00:09.819Z,51.88
2022-12-29T03:03:47.375Z,52.08
2022-12-29T03:06:54.295Z,52.95
2022-12-29T03:09:59.373Z,64.17
2022-12-29T03:13:56.124Z,55.13
2022-12-29T03:17:00.715Z,52.08
2022-12-29T03:20:11.390Z,53.87
2022-12-29T03:23:17.043Z,56.47
2022-12-29T03:26:20.910Z,65.13
2022-12-29T03:29:25.053Z,47.67
2022-12-29T03:32:31.190Z,55.25
2022-12-29T03:35:35.299Z,50.05
2022-12-29T03:38:43.685Z,54.00
2022-12-29T03:41:46.708Z,43.43
2022-12-29T03:44:49.304Z,49.85
2022-12-29T03:47:53.086Z,47.15
2022-12-29T03:50:55.460Z,48.80
2022-12-29T03:53:58.751Z,56.55
2022-12-29T03:57:00.962Z,53.03
2022-12-29T04:00:17.866Z,51.72
2022-12-29T04:03:24.515Z,43.85
2022-12-29T04:06:27.029Z,48.45
2022-12-29T04:09:35.507Z,47.42
2022-12-29T04:12:38.582Z,49.00
2022-12-29T04:15:40.834Z,48.45
2022-12-29T04:18:43.395Z,43.20
2022-12-29T04:21:45.963Z,52.60
2022-12-29T04:24:48.135Z,43.17
2022-12-29T04:27:50.353Z,37.80
2022-12-29T04:31:16.021Z,41.55
2022-12-29T04:34:19.960Z,41.33
2022-12-29T04:37:23.921Z,44.70
2022-12-29T04:40:26.144Z,41.55
2022-12-29T04:43:28.724Z,37.27
2022-12-29T04:46:49.605Z,40.30
2022-12-29T04:50:14.809Z,58.30
2022-12-29T04:53:20.334Z,54.77
2022-12-29T04:56:22.737Z,46.90
2022-12-29T04:59:24.964Z,68.85
2022-12-29T05:02:30.682Z,53.75
2022-12-29T05:05:33.149Z,58.05
2022-12-29T05:08:36.967Z,48.80
2022-12-29T05:11:40.124Z,51.85
2022-12-29T05:14:43.930Z,51.47
2022-12-29T05:17:46.190Z,53.53
2022-12-29T05:20:48.673Z,58.70
2022-12-29T05:23:50.889Z,54.93
2022-12-29T05:26:53.642Z,53.03
2022-12-29T05:30:23.337Z,56.60
2022-12-29T05:33:25.605Z,85.15
2022-12-29T05:36:30.635Z,110.63
2022-12-29T05:39:38.264Z,114.85
2022-12-29T05:42:41.612Z,85.38
2022-12-29T05:46:16.006Z,74.20
2022-12-29T05:49:38.392Z,72.85
2022-12-29T05:52:44.378Z,55.25
2022-12-29T05:55:50.259Z,61.73
2022-12-29T05:58:52.930Z,46.58
2022-12-29T06:01:55.341Z,38.13
2022-12-29T06:04:58.099Z,32.83
2022-12-29T06:08:00.470Z,42.35
2022-12-29T06:11:03.421Z,45.38
2022-12-29T06:14:05.834Z,42.03
2022-12-29T06:17:09.055Z,41.87
2022-12-29T06:20:11.487Z,48.25
2022-12-29T06:23:14.282Z,77.32
2022-12-29T06:26:16.501Z,68.53
2022-12-29T06:29:19.287Z,65.82
2022-12-29T06:32:21.802Z,55.60
2022-12-29T06:35:27.685Z,58.30
2022-12-29T06:38:29.955Z,55.63
2022-12-29T06:41:33.839Z,64.47
2022-12-29T06:44:44.896Z,82.90
2022-12-29T06:47:46.981Z,70.33
2022-12-29T06:50:49.328Z,47.35
2022-12-29T06:53:51.476Z,39.42
2022-12-29T06:56:53.655Z,40.50
2022-12-29T06:59:56.799Z,36.67
2022-12-29T07:02:59.394Z,38.00
2022-12-29T07:06:01.739Z,37.45
2022-12-29T07:09:03.915Z,34.65
2022-12-29T07:12:07.045Z,41.75
2022-12-29T07:15:09.548Z,48.20
2022-12-29T07:18:11.748Z,43.20
2022-12-29T07:21:13.940Z,42.97
2022-12-29T07:24:16.420Z,38.40
2022-12-29T07:27:18.839Z,57.67
2022-12-29T07:30:21.029Z,61.03
2022-12-29T07:33:23.175Z,63.78
2022-12-29T07:36:29.328Z,61.20
2022-12-29T07:39:34.646Z,56.83
2022-12-29T07:42:36.807Z,52.65
2022-12-29T07:45:39.137Z,54.10
2022-12-29T07:48:44.380Z,57.97
2022-12-29T07:51:46.643Z,57.92
2022-12-29T07:54:49.974Z,55.40
2022-12-29T07:57:54.095Z,52.27
2022-12-29T08:00:56.851Z,56.35
2022-12-29T08:03:59.057Z,73.57
2022-12-29T08:07:01.249Z,85.82
2022-12-29T08:10:03.567Z,92.03
2022-12-29T08:13:05.691Z,94.90
2022-12-29T08:16:07.952Z,80.10
2022-12-29T08:19:11.372Z,82.60
2022-12-29T08:22:14.909Z,77.15
2022-12-29T08:25:17.142Z,73.82
2022-12-29T08:28:19.304Z,73.53
2022-12-29T08:31:21.953Z,72.68
2022-12-29T08:34:24.111Z,77.57
2022-12-29T08:37:30.916Z,69.57
2022-12-29T08:40:34.047Z,66.67
2022-12-29T08:43:36.226Z,55.72
2022-12-29T08:46:38.504Z,69.32
2022-12-29T08:49:40.813Z,82.25
2022-12-29T08:52:42.969Z,79.05
2022-12-29T08:55:48.940Z,68.32
2022-12-29T08:58:52.135Z,61.58
2022-12-29T09:01:54.768Z,60.27
2022-12-29T09:04:58.440Z,62.45
2022-12-29T09:08:00.653Z,48.90
2022-12-29T09:11:10.231Z,47.87
2022-12-29T09:14:12.982Z,44.35
2022-12-29T09:17:33.797Z,41.78
2022-12-29T09:20:36.124Z,41.65
2022-12-29T09:23:38.534Z,38.30
2022-12-29T09:26:46.851Z,38.40
2022-12-29T09:29:49.534Z,35.58
2022-12-29T09:32:55.188Z,35.45
2022-12-29T09:35:58.922Z,36.57
2022-12-29T09:39:01.738Z,36.88
2022-12-29T09:42:34.159Z,41.30
2022-12-29T09:45:47.169Z,55.80
2022-12-29T09:48:51.988Z,50.13
2022-12-29T09:51:54.972Z,48.33
2022-12-29T09:55:07.752Z,39.50
2022-12-29T09:58:23.481Z,36.17
2022-12-29T10:01:38.541Z,34.20
2022-12-29T10:04:42.156Z,33.33
2022-12-29T10:07:51.279Z,27.67
2022-12-29T10:10:59.375Z,29.03
2022-12-29T10:14:01.473Z,26.63
2022-12-29T10:17:24.915Z,27.38
2022-12-29T10:20:42.436Z,24.70
2022-12-29T10:23:51.554Z,26.23
2022-12-29T10:26:53.620Z,32.55
2022-12-29T10:29:56.710Z,27.10
2022-12-29T10:32:59.870Z,22.50
2022-12-29T10:36:04.071Z,23.93
2022-12-29T10:39:11.367Z,26.95
2022-12-29T10:42:13.602Z,25.75
2022-12-29T10:45:16.662Z,31.08
2022-12-29T10:48:31.523Z,22.30
2022-12-29T10:51:37.796Z,25.30
2022-12-29T10:54:45.773Z,28.88
2022-12-29T10:57:48.374Z,22.17
2022-12-29T11:00:52.110Z,25.60
2022-12-29T11:04:00.247Z,34.22
2022-12-29T11:07:02.701Z,30.10
2022-12-29T11:10:17.437Z,28.58
2022-12-29T11:13:25.379Z,30.03
2022-12-29T11:16:32.203Z,25.27
2022-12-29T11:19:40.529Z,25.55
2022-12-29T11:22:45.380Z,29.67
2022-12-29T11:25:47.556Z,25.73
2022-12-29T11:29:06.683Z,29.58
2022-12-29T11:32:14.009Z,27.30
2022-12-29T11:35:36.593Z,27.65
2022-12-29T11:38:44.047Z,26.73
2022-12-29T11:41:52.127Z,32.55
2022-12-29T11:44:54.342Z,39.13
2022-12-29T11:48:16.775Z,41.00
2022-12-29T11:51:26.600Z,37.13
2022-12-29T11:54:31.371Z,37.72
2022-12-29T11:57:34.630Z,36.97
2022-12-29T12:00:41.265Z,35.53
2022-12-29T12:04:01.908Z,41.38
2022-12-29T12:07:13.834Z,37.92
2022-12-29T12:10:22.461Z,35.92
2022-12-29T12:13:27.945Z,41.63
2022-12-29T12:16:50.760Z,56.22
2022-12-29T12:20:17.866Z,48.03
2022-12-29T12:23:52.222Z,45.03
2022-12-29T12:26:57.240Z,39.42
2022-12-29T12:30:02.388Z,41.45
2022-12-29T12:33:07.027Z,47.67
2022-12-29T12:36:15.536Z,47.27
2022-12-29T12:39:20.825Z,43.03
2022-12-29T12:42:22.921Z,44.78
2022-12-29T12:45:34.420Z,42.42
2022-12-29T12:48:36.601Z,44.17
2022-12-29T12:52:01.180Z,60.80
2022-12-29T12:55:22.268Z,66.50
2022-12-29T12:58:27.619Z,66.05
2022-12-29T13:01:33.054Z,62.10
2022-12-29T13:04:54.965Z,51.90
2022-12-29T13:08:16.205Z,46.78
2022-12-29T13:11:18.421Z,49.38
2022-12-29T13:14:27.235Z,37.43
2022-12-29T13:17:34.154Z,42.58
2022-12-29T13:20:54.439Z,52.45
2022-12-29T13:23:56.545Z,41.92
2022-12-29T13:27:05.783Z,45.60
2022-12-29T13:30:11.110Z,46.47
2022-12-29T13:33:21.362Z,45.88
2022-12-29T13:36:30.634Z,44.72
2022-12-29T13:39:38.664Z,42.92
2022-12-29T13:42:41.754Z,45.70
2022-12-29T13:45:45.115Z,43.58
2022-12-29T13:48:47.266Z,46.87
2022-12-29T13:52:00.732Z,44.05
2022-12-29T13:55:23.915Z,46.25
2022-12-29T13:58:31.855Z,48.90
2022-12-29T14:02:00.806Z,60.20
2022-12-29T14:05:05.024Z,55.33
2022-12-29T14:08:14.698Z,53.35
2022-12-29T14:11:18.127Z,51.10
2022-12-29T14:14:22.423Z,48.75
2022-12-29T14:17:24.584Z,55.42
2022-12-29T14:20:26.649Z,116.13
2022-12-29T14:23:42.916Z,274.37
2022-12-29T14:26:45.120Z,59.88
2022-12-29T14:29:48.805Z,55.05
2022-12-29T14:33:17.239Z,85.97
2022-12-29T14:36:25.223Z,70.07
2022-12-29T14:39:39.027Z,61.97
2022-12-29T14:42:42.431Z,61.95
2022-12-29T14:45:52.439Z,61.05
2022-12-29T14:48:59.355Z,53.13
2022-12-29T14:52:06.202Z,55.78
2022-12-29T14:55:08.292Z,50.42
2022-12-29T14:58:16.948Z,55.97
2022-12-29T15:01:28.736Z,64.65
2022-12-29T15:04:36.187Z,129.65
2022-12-29T15:07:38.420Z,52.22
2022-12-29T15:10:46.496Z,55.07
2022-12-29T15:13:49.803Z,58.78
2022-12-29T15:16:52.024Z,43.15
2022-12-29T15:19:54.918Z,51.22
2022-12-29T15:22:58.836Z,59.08
2022-12-29T15:26:03.644Z,63.00
2022-12-29T15:29:06.305Z,64.25
2022-12-29T15:32:18.267Z,61.60
2022-12-29T15:35:31.504Z,60.40
2022-12-29T15:38:40.011Z,60.08
2022-12-29T15:42:02.315Z,67.22
2022-12-29T15:45:12.004Z,64.25
2022-12-29T15:48:19.587Z,65.80
2022-12-29T15:51:30.658Z,78.47
2022-12-29T15:54:32.957Z,92.70
2022-12-29T15:57:42.522Z,77.97
2022-12-29T16:00:48.851Z,85.63
2022-12-29T16:03:52.366Z,87.72
2022-12-29T16:07:00.257Z,81.27
2022-12-29T16:10:02.933Z,83.18
2022-12-29T16:13:16.782Z,95.18
2022-12-29T16:16:24.441Z,79.65
2022-12-29T16:19:29.887Z,86.83
2022-12-29T16:22:34.076Z,68.63
2022-12-29T16:25:38.359Z,80.63
2022-12-29T16:28:44.717Z,75.82
2022-12-29T16:31:50.047Z,89.53
2022-12-29T16:34:54.154Z,90.13
2022-12-29T16:38:09.456Z,87.93
2022-12-29T16:41:28.914Z,86.65
2022-12-29T16:44:31.728Z,89.57
2022-12-29T16:47:33.881Z,107.68
2022-12-29T16:50:37.497Z,145.52
2022-12-29T16:53:40.900Z,115.70
2022-12-29T16:56:44.764Z,137.73
2022-12-29T16:59:46.930Z,111.07
2022-12-29T17:02:54.870Z,169.43
2022-12-29T17:05:57.878Z,385.33
2022-12-29T17:09:00.823Z,300.70
2022-12-29T17:12:10.685Z,266.75
2022-12-29T17:15:22.273Z,209.43
2022-12-29T17:18:24.396Z,175.15
2022-12-29T17:21:26.837Z,143.95
2022-12-29T17:24:28.970Z,172.30
2022-12-29T17:27:34.199Z,173.80
2022-12-29T17:30:36.765Z,166.73
2022-12-29T17:33:40.096Z,173.00
2022-12-29T17:36:42.463Z,157.67
2022-12-29T17:39:44.734Z,180.77
2022-12-29T17:42:48.374Z,197.48
2022-12-29T17:45:54.725Z,167.30
2022-12-29T17:48:57.035Z,177.37
2022-12-29T17:51:59.629Z,215.23
2022-12-29T17:55:01.921Z,212.52
2022-12-29T17:58:20.791Z,178.23
2022-12-29T18:01:31.006Z,163.80
2022-12-29T18:04:36.227Z,327.67
2022-12-29T18:07:38.355Z,213.90
2022-12-29T18:10:40.664Z,254.90
2022-12-29T18:13:46.657Z,156.43
2022-12-29T18:16:49.654Z,118.50
2022-12-29T18:19:54.843Z,157.93
2022-12-29T18:22:58.883Z,196.88
2022-12-29T18:26:13.657Z,198.20
2022-12-29T18:29:15.998Z,187.23
2022-12-29T18:32:18.562Z,194.67
2022-12-29T18:35:26.052Z,186.55
2022-12-29T18:38:28.581Z,186.05
2022-12-29T18:41:30.756Z,205.48
2022-12-29T18:44:33.399Z,298.53
2022-12-29T18:47:35.656Z,239.70
2022-12-29T18:50:37.828Z,225.38
2022-12-29T18:53:40.059Z,251.97
2022-12-29T18:56:42.282Z,230.35
2022-12-29T18:59:44.916Z,236.88
2022-12-29T19:02:47.379Z,205.85
2022-12-29T19:05:49.903Z,192.83
2022-12-29T19:08:52.160Z,225.07
2022-12-29T19:11:54.346Z,225.02
2022-12-29T19:14:56.913Z,204.93
2022-12-29T19:21:22.978Z,197.02
2022-12-29T19:24:25.158Z,183.90
2022-12-29T19:27:27.301Z,150.37
2022-12-29T19:30:29.567Z,142.07
2022-12-29T19:33:32.020Z,151.43
2022-12-29T19:36:34.193Z,160.98
2022-12-29T19:39:36.779Z,189.55
2022-12-29T19:42:39.020Z,224.93
2022-12-29T19:45:42.419Z,223.73
2022-12-29T19:48:44.875Z,187.20
2022-12-29T19:51:47.038Z,178.40
2022-12-29T19:54:49.401Z,246.35
2022-12-29T19:57:51.510Z,144.80
2022-12-29T20:00:53.607Z,141.57
2022-12-29T20:03:56.157Z,129.40
2022-12-29T20:06:58.287Z,126.32
2022-12-29T20:10:00.628Z,108.80
2022-12-29T20:13:04.620Z,100.53
2022-12-29T20:16:07.928Z,110.75
2022-12-29T20:19:11.091Z,124.60
2022-12-29T20:22:13.537Z,110.93
2022-12-29T20:25:44.294Z,129.60
2022-12-29T20:28:37.956Z,268.17
2022-12-29T20:31:40.729Z,277.57
2022-12-29T20:34:43.571Z,302.52
2022-12-29T20:37:45.772Z,311.13
2022-12-29T20:40:47.997Z,253.63
2022-12-29T20:43:50.832Z,218.75
2022-12-29T20:46:53.024Z,235.85
2022-12-29T20:49:55.185Z,173.95
2022-12-29T20:52:57.339Z,175.60
2022-12-29T20:56:04.275Z,161.50
2022-12-29T20:59:27.036Z,116.68
2022-12-29T21:02:28.854Z,100.85
2022-12-29T21:05:31.487Z,76.10
2022-12-29T21:08:34.236Z,68.90
2022-12-29T21:11:36.513Z,59.45
2022-12-29T21:14:45.266Z,84.53
2022-12-29T21:17:47.890Z,158.52
2022-12-29T21:21:00.698Z,208.13
2022-12-29T21:24:05.648Z,238.45
2022-12-29T21:27:07.985Z,237.35
2022-12-29T21:30:10.526Z,237.50
2022-12-29T21:33:12.701Z,179.57
2022-12-29T21:36:14.824Z,157.47
2022-12-29T21:39:18.122Z,120.80
2022-12-29T21:42:20.384Z,116.18
2022-12-29T21:45:25.437Z,117.32
2022-12-29T21:48:30.144Z,109.82
2022-12-29T21:51:50.658Z,110.05
2022-12-29T21:55:01.615Z,124.43
2022-12-29T21:58:22.604Z,131.40
2022-12-29T22:01:44.208Z,146.98
2022-12-29T22:05:05.244Z,149.60
2022-12-29T22:08:26.251Z,149.77
2022-12-29T22:11:47.245Z,141.75
2022-12-29T22:14:49.658Z,140.07
2022-12-29T22:17:53.003Z,113.90
2022-12-29T22:20:55.172Z,126.77
2022-12-29T22:23:57.376Z,124.78
2022-12-29T22:26:59.550Z,122.85
2022-12-29T22:30:01.832Z,120.30
2022-12-29T22:33:04.036Z,115.70
2022-12-29T22:36:06.290Z,149.10
2022-12-29T22:39:08.444Z,163.10
2022-12-29T22:42:10.596Z,139.15
2022-12-29T22:45:12.869Z,161.57
2022-12-29T22:48:15.053Z,158.23
2022-12-29T22:51:17.294Z,156.63
2022-12-29T22:54:19.957Z,178.90
2022-12-29T22:57:22.143Z,192.50
2022-12-29T23:00:24.242Z,227.30
2022-12-29T23:03:26.728Z,170.73
2022-12-29T23:06:29.255Z,150.97
2022-12-29T23:09:31.665Z,127.05
2022-12-29T23:12:33.989Z,168.07
2022-12-29T23:15:36.260Z,154.02
2022-12-29T23:18:38.441Z,131.70
2022-12-29T23:21:41.144Z,172.38
2022-12-29T23:24:43.238Z,201.10
2022-12-29T23:27:45.354Z,218.00
2022-12-29T23:30:47.533Z,221.05
2022-12-29T23:33:50.002Z,235.95
2022-12-29T23:36:52.271Z,214.07
2022-12-29T23:39:54.487Z,195.27
2022-12-29T23:42:56.733Z,216.13
2022-12-29T23:45:58.907Z,182.45
2022-12-29T23:49:01.537Z,174.10
2022-12-29T23:52:03.860Z,156.38
2022-12-29T23:55:06.328Z,163.77
2022-12-29T23:58:08.658Z,141.10
